sensor_id;sensor_type;location;lat;lon;timestamp;pressure;altitude;pressure_sealevel;temperature;humidity
21100;BME280;10708;50.824;4.408;2023-04-30T00:03:11;101301.03;;;9.27;100.00
21100;BME280;10708;50.824;4.408;2023-04-30T00:08:15;101297.47;;;9.30;100.00
21100;BME280;10708;50.824;4.408;2023-04-30T00:13:17;101296.56;;;9.31;100.00
21100;BME280;10708;50.824;4.408;2023-04-30T00:18:20;101292.19;;;9.31;100.00
21100;BME280;10708;50.824;4.408;2023-04-30T00:23:24;101290.44;;;9.30;100.00
21100;BME280;10708;50.824;4.408;2023-04-30T00:28:26;101291.44;;;9.24;100.00
21100;BME280;10708;50.824;4.408;2023-04-30T00:33:28;101283.72;;;9.17;100.00
21100;BME280;10708;50.824;4.408;2023-04-30T00:38:32;101285.63;;;9.07;100.00
21100;BME280;10708;50.824;4.408;2023-04-30T00:43:35;101286.63;;;9.00;100.00
21100;BME280;10708;50.824;4.408;2023-04-30T00:48:37;101282.38;;;8.93;100.00
21100;BME280;10708;50.824;4.408;2023-04-30T00:53:42;101282.53;;;8.84;100.00
21100;BME280;10708;50.824;4.408;2023-04-30T00:58:45;101281.81;;;8.76;100.00
21100;BME280;10708;50.824;4.408;2023-04-30T01:03:49;101285.47;;;8.66;100.00
21100;BME280;10708;50.824;4.408;2023-04-30T01:08:53;101279.50;;;8.58;100.00
21100;BME280;10708;50.824;4.408;2023-04-30T01:14:03;101278.78;;;8.46;100.00
21100;BME280;10708;50.824;4.408;2023-04-30T01:19:23;101268.47;;;8.36;100.00
21100;BME280;10708;50.824;4.408;2023-04-30T01:24:48;101269.38;;;8.30;100.00
21100;BME280;10708;50.824;4.408;2023-04-30T01:29:53;101278.28;;;8.20;100.00
21100;BME280;10708;50.824;4.408;2023-04-30T01:34:56;101277.53;;;8.10;100.00
21100;BME280;10708;50.824;4.408;2023-04-30T01:40:07;101272.50;;;7.98;100.00
21100;BME280;10708;50.824;4.408;2023-04-30T01:45:31;101278.75;;;7.88;100.00
21100;BME280;10708;50.824;4.408;2023-04-30T01:50:42;101282.34;;;7.79;100.00
21100;BME280;10708;50.824;4.408;2023-04-30T01:55:50;101276.31;;;7.71;100.00
21100;BME280;10708;50.824;4.408;2023-04-30T02:00:54;101285.16;;;7.63;100.00
21100;BME280;10708;50.824;4.408;2023-04-30T02:05:57;101287.78;;;7.66;100.00
21100;BME280;10708;50.824;4.408;2023-04-30T02:11:00;101282.56;;;7.61;100.00
21100;BME280;10708;50.824;4.408;2023-04-30T02:16:04;101285.25;;;7.57;100.00
21100;BME280;10708;50.824;4.408;2023-04-30T02:21:07;101289.66;;;7.52;100.00
21100;BME280;10708;50.824;4.408;2023-04-30T02:26:09;101282.75;;;7.48;100.00
21100;BME280;10708;50.824;4.408;2023-04-30T02:31:13;101276.59;;;7.49;100.00
21100;BME280;10708;50.824;4.408;2023-04-30T02:36:16;101273.94;;;7.52;100.00
21100;BME280;10708;50.824;4.408;2023-04-30T02:41:18;101283.53;;;7.53;100.00
21100;BME280;10708;50.824;4.408;2023-04-30T02:46:22;101273.97;;;7.49;100.00
21100;BME280;10708;50.824;4.408;2023-04-30T02:51:25;101277.53;;;7.45;100.00
21100;BME280;10708;50.824;4.408;2023-04-30T02:56:28;101276.69;;;7.41;100.00
21100;BME280;10708;50.824;4.408;2023-04-30T03:01:32;101277.56;;;7.40;100.00
21100;BME280;10708;50.824;4.408;2023-04-30T03:06:34;101284.63;;;7.36;100.00
21100;BME280;10708;50.824;4.408;2023-04-30T03:11:36;101287.28;;;7.30;100.00
21100;BME280;10708;50.824;4.408;2023-04-30T03:16:40;101279.50;;;7.26;100.00
21100;BME280;10708;50.824;4.408;2023-04-30T03:21:43;101283.97;;;7.18;100.00
21100;BME280;10708;50.824;4.408;2023-04-30T03:26:46;101285.75;;;7.11;100.00
21100;BME280;10708;50.824;4.408;2023-04-30T03:31:50;101269.25;;;7.04;100.00
21100;BME280;10708;50.824;4.408;2023-04-30T03:36:52;101271.94;;;6.98;100.00
21100;BME280;10708;50.824;4.408;2023-04-30T03:41:55;101275.47;;;6.90;100.00
21100;BME280;10708;50.824;4.408;2023-04-30T03:46:59;101273.78;;;6.86;100.00
21100;BME280;10708;50.824;4.408;2023-04-30T03:52:01;101265.97;;;6.81;100.00
21100;BME280;10708;50.824;4.408;2023-04-30T03:57:05;101263.41;;;6.75;100.00
21100;BME280;10708;50.824;4.408;2023-04-30T04:02:11;101262.53;;;6.75;100.00
21100;BME280;10708;50.824;4.408;2023-04-30T04:07:14;101262.56;;;6.72;100.00
21100;BME280;10708;50.824;4.408;2023-04-30T04:12:16;101263.50;;;6.68;100.00
21100;BME280;10708;50.824;4.408;2023-04-30T04:17:20;101268.75;;;6.64;100.00
21100;BME280;10708;50.824;4.408;2023-04-30T04:22:22;101272.25;;;6.60;100.00
21100;BME280;10708;50.824;4.408;2023-04-30T04:27:25;101274.91;;;6.57;100.00
21100;BME280;10708;50.824;4.408;2023-04-30T04:32:29;101281.88;;;6.58;100.00
21100;BME280;10708;50.824;4.408;2023-04-30T04:37:33;101291.50;;;6.58;100.00
21100;BME280;10708;50.824;4.408;2023-04-30T04:42:35;101283.59;;;6.61;100.00
21100;BME280;10708;50.824;4.408;2023-04-30T04:47:39;101294.91;;;6.66;100.00
21100;BME280;10708;50.824;4.408;2023-04-30T04:52:42;101291.34;;;6.72;100.00
21100;BME280;10708;50.824;4.408;2023-04-30T04:57:44;101297.44;;;6.75;100.00
21100;BME280;10708;50.824;4.408;2023-04-30T05:02:48;101296.53;;;6.79;100.00
21100;BME280;10708;50.824;4.408;2023-04-30T05:07:50;101303.50;;;6.80;100.00
21100;BME280;10708;50.824;4.408;2023-04-30T05:12:55;101310.47;;;6.80;100.00
21100;BME280;10708;50.824;4.408;2023-04-30T05:17:59;101306.09;;;6.82;100.00
21100;BME280;10708;50.824;4.408;2023-04-30T05:23:01;101310.44;;;6.86;100.00
21100;BME280;10708;50.824;4.408;2023-04-30T05:28:04;101309.53;;;6.90;100.00
21100;BME280;10708;50.824;4.408;2023-04-30T05:33:08;101304.25;;;6.94;100.00
21100;BME280;10708;50.824;4.408;2023-04-30T05:38:11;101315.53;;;7.01;100.00
21100;BME280;10708;50.824;4.408;2023-04-30T05:43:13;101310.25;;;7.09;100.00
21100;BME280;10708;50.824;4.408;2023-04-30T05:48:18;101309.25;;;7.19;100.00
21100;BME280;10708;50.824;4.408;2023-04-30T05:53:20;101310.00;;;7.31;100.00
21100;BME280;10708;50.824;4.408;2023-04-30T05:58:23;101302.00;;;7.42;100.00
21100;BME280;10708;50.824;4.408;2023-04-30T06:03:27;101302.75;;;7.53;100.00
21100;BME280;10708;50.824;4.408;2023-04-30T06:08:30;101303.50;;;7.67;100.00
21100;BME280;10708;50.824;4.408;2023-04-30T06:13:33;101306.78;;;7.82;100.00
21100;BME280;10708;50.824;4.408;2023-04-30T06:18:37;101300.41;;;7.99;100.00
21100;BME280;10708;50.824;4.408;2023-04-30T06:23:39;101296.66;;;8.19;100.00
21100;BME280;10708;50.824;4.408;2023-04-30T06:28:42;101297.34;;;8.36;100.00
21100;BME280;10708;50.824;4.408;2023-04-30T06:33:48;101295.16;;;8.62;100.00
21100;BME280;10708;50.824;4.408;2023-04-30T06:38:51;101288.66;;;8.84;100.00
21100;BME280;10708;50.824;4.408;2023-04-30T06:43:54;101299.59;;;9.09;100.00
21100;BME280;10708;50.824;4.408;2023-04-30T06:48:58;101300.88;;;9.36;100.00
21100;BME280;10708;50.824;4.408;2023-04-30T06:54:01;101306.41;;;9.67;100.00
21100;BME280;10708;50.824;4.408;2023-04-30T06:59:04;101302.25;;;9.97;100.00
21100;BME280;10708;50.824;4.408;2023-04-30T07:04:08;101297.00;;;10.37;100.00
21100;BME280;10708;50.824;4.408;2023-04-30T07:09:10;101293.50;;;11.07;100.00
21100;BME280;10708;50.824;4.408;2023-04-30T07:14:13;101296.84;;;12.63;100.00
21100;BME280;10708;50.824;4.408;2023-04-30T07:19:17;101294.13;;;13.66;100.00
21100;BME280;10708;50.824;4.408;2023-04-30T07:24:19;101301.44;;;14.94;100.00
21100;BME280;10708;50.824;4.408;2023-04-30T07:29:22;101288.91;;;16.16;100.00
21100;BME280;10708;50.824;4.408;2023-04-30T07:34:26;101278.84;;;16.58;100.00
21100;BME280;10708;50.824;4.408;2023-04-30T07:39:28;101277.66;;;17.00;100.00
21100;BME280;10708;50.824;4.408;2023-04-30T07:44:31;101272.44;;;17.66;100.00
21100;BME280;10708;50.824;4.408;2023-04-30T07:49:35;101269.28;;;17.91;100.00
21100;BME280;10708;50.824;4.408;2023-04-30T07:54:37;101268.09;;;18.43;100.00
21100;BME280;10708;50.824;4.408;2023-04-30T07:59:40;101259.22;;;18.43;100.00
21100;BME280;10708;50.824;4.408;2023-04-30T08:04:44;101266.59;;;18.69;100.00
21100;BME280;10708;50.824;4.408;2023-04-30T08:09:58;101259.84;;;19.08;100.00
21100;BME280;10708;50.824;4.408;2023-04-30T08:15:03;101265.78;;;19.27;100.00
21100;BME280;10708;50.824;4.408;2023-04-30T08:20:09;101250.31;;;19.04;100.00
21100;BME280;10708;50.824;4.408;2023-04-30T08:25:16;101254.03;;;18.71;100.00
21100;BME280;10708;50.824;4.408;2023-04-30T08:30:19;101250.78;;;18.96;100.00
21100;BME280;10708;50.824;4.408;2023-04-30T08:35:24;101256.44;;;18.76;100.00
21100;BME280;10708;50.824;4.408;2023-04-30T08:40:27;101258.16;;;19.21;100.00
21100;BME280;10708;50.824;4.408;2023-04-30T08:45:30;101242.78;;;20.24;100.00
21100;BME280;10708;50.824;4.408;2023-04-30T08:50:34;101245.75;;;20.46;100.00
21100;BME280;10708;50.824;4.408;2023-04-30T08:55:38;101246.66;;;20.59;100.00
21100;BME280;10708;50.824;4.408;2023-04-30T09:00:41;101241.22;;;20.34;100.00
21100;BME280;10708;50.824;4.408;2023-04-30T09:05:45;101238.53;;;21.00;100.00
21100;BME280;10708;50.824;4.408;2023-04-30T09:10:47;101229.53;;;21.02;100.00
21100;BME280;10708;50.824;4.408;2023-04-30T09:15:50;101239.69;;;21.09;100.00
21100;BME280;10708;50.824;4.408;2023-04-30T09:20:56;101224.88;;;20.78;100.00
21100;BME280;10708;50.824;4.408;2023-04-30T09:26:01;101223.00;;;20.93;100.00
21100;BME280;10708;50.824;4.408;2023-04-30T09:31:18;101228.25;;;20.55;100.00
21100;BME280;10708;50.824;4.408;2023-04-30T09:36:23;101217.94;;;19.67;100.00
21100;BME280;10708;50.824;4.408;2023-04-30T09:41:26;101231.44;;;19.07;100.00
21100;BME280;10708;50.824;4.408;2023-04-30T09:46:30;101223.38;;;18.78;100.00
21100;BME280;10708;50.824;4.408;2023-04-30T09:51:34;101229.88;;;18.43;100.00
21100;BME280;10708;50.824;4.408;2023-04-30T09:56:53;101226.47;;;19.01;100.00
21100;BME280;10708;50.824;4.408;2023-04-30T10:01:58;101208.59;;;19.45;100.00
21100;BME280;10708;50.824;4.408;2023-04-30T10:07:04;101207.75;;;19.73;100.00
21100;BME280;10708;50.824;4.408;2023-04-30T10:12:13;101205.66;;;19.50;100.00
21100;BME280;10708;50.824;4.408;2023-04-30T10:17:16;101214.13;;;19.57;100.00
21100;BME280;10708;50.824;4.408;2023-04-30T10:22:20;101201.63;;;19.57;100.00
21100;BME280;10708;50.824;4.408;2023-04-30T10:27:23;101215.75;;;18.87;100.00
21100;BME280;10708;50.824;4.408;2023-04-30T10:32:31;101198.28;;;19.11;100.00
21100;BME280;10708;50.824;4.408;2023-04-30T10:37:42;101205.88;;;19.17;100.00
21100;BME280;10708;50.824;4.408;2023-04-30T10:42:48;101189.78;;;19.18;100.00
21100;BME280;10708;50.824;4.408;2023-04-30T10:47:54;101181.97;;;19.44;100.00
21100;BME280;10708;50.824;4.408;2023-04-30T10:53:05;101185.19;;;18.92;100.00
21100;BME280;10708;50.824;4.408;2023-04-30T10:58:25;101165.72;;;18.46;100.00
21100;BME280;10708;50.824;4.408;2023-04-30T11:03:28;101164.19;;;17.96;100.00
21100;BME280;10708;50.824;4.408;2023-04-30T11:08:33;101155.53;;;17.60;100.00
21100;BME280;10708;50.824;4.408;2023-04-30T11:13:40;101146.88;;;17.56;100.00
21100;BME280;10708;50.824;4.408;2023-04-30T11:18:43;101149.13;;;17.80;100.00
21100;BME280;10708;50.824;4.408;2023-04-30T11:23:48;101140.34;;;17.78;100.00
21100;BME280;10708;50.824;4.408;2023-04-30T11:28:50;101130.19;;;17.53;100.00
21100;BME280;10708;50.824;4.408;2023-04-30T11:33:54;101128.13;;;17.42;100.00
21100;BME280;10708;50.824;4.408;2023-04-30T11:38:58;101119.00;;;17.30;100.00
21100;BME280;10708;50.824;4.408;2023-04-30T11:44:21;101112.09;;;17.11;100.00
21100;BME280;10708;50.824;4.408;2023-04-30T11:49:24;101130.94;;;17.23;100.00
21100;BME280;10708;50.824;4.408;2023-04-30T11:54:35;101102.19;;;16.97;100.00
21100;BME280;10708;50.824;4.408;2023-04-30T11:59:40;101092.19;;;17.02;100.00
21100;BME280;10708;50.824;4.408;2023-04-30T12:04:43;101091.78;;;17.25;100.00
21100;BME280;10708;50.824;4.408;2023-04-30T12:09:53;101094.59;;;17.38;100.00
21100;BME280;10708;50.824;4.408;2023-04-30T12:14:56;101074.53;;;17.32;100.00
21100;BME280;10708;50.824;4.408;2023-04-30T12:19:58;101069.31;;;17.47;100.00
21100;BME280;10708;50.824;4.408;2023-04-30T12:25:05;101071.53;;;17.54;100.00
21100;BME280;10708;50.824;4.408;2023-04-30T12:30:08;101079.16;;;17.45;100.00
21100;BME280;10708;50.824;4.408;2023-04-30T12:35:14;101062.84;;;17.51;100.00
21100;BME280;10708;50.824;4.408;2023-04-30T12:40:19;101069.34;;;17.61;100.00
21100;BME280;10708;50.824;4.408;2023-04-30T12:45:47;101059.75;;;17.74;100.00
21100;BME280;10708;50.824;4.408;2023-04-30T12:50:52;101046.69;;;17.54;100.00
21100;BME280;10708;50.824;4.408;2023-04-30T12:56:13;101049.56;;;17.66;100.00
21100;BME280;10708;50.824;4.408;2023-04-30T13:01:18;101047.88;;;17.95;100.00
21100;BME280;10708;50.824;4.408;2023-04-30T13:06:21;101042.09;;;18.17;100.00
21100;BME280;10708;50.824;4.408;2023-04-30T13:11:25;101028.81;;;18.31;100.00
21100;BME280;10708;50.824;4.408;2023-04-30T13:16:28;101025.63;;;18.11;100.00
21100;BME280;10708;50.824;4.408;2023-04-30T13:21:31;101028.34;;;17.95;100.00
21100;BME280;10708;50.824;4.408;2023-04-30T13:26:36;101025.06;;;18.05;100.00
21100;BME280;10708;50.824;4.408;2023-04-30T13:31:38;101002.22;;;18.30;100.00
21100;BME280;10708;50.824;4.408;2023-04-30T13:36:42;101003.13;;;18.44;100.00
21100;BME280;10708;50.824;4.408;2023-04-30T13:41:48;100995.72;;;18.64;100.00
21100;BME280;10708;50.824;4.408;2023-04-30T13:46:50;100994.28;;;18.58;100.00
21100;BME280;10708;50.824;4.408;2023-04-30T13:51:53;100991.63;;;18.58;100.00
21100;BME280;10708;50.824;4.408;2023-04-30T13:56:56;100978.47;;;18.84;100.00
21100;BME280;10708;50.824;4.408;2023-04-30T14:01:59;100982.25;;;18.94;100.00
21100;BME280;10708;50.824;4.408;2023-04-30T14:07:02;100980.00;;;18.73;100.00
21100;BME280;10708;50.824;4.408;2023-04-30T14:12:06;100983.28;;;18.49;100.00
21100;BME280;10708;50.824;4.408;2023-04-30T14:17:08;100984.63;;;18.41;100.00
21100;BME280;10708;50.824;4.408;2023-04-30T14:22:11;100972.78;;;18.17;100.00
21100;BME280;10708;50.824;4.408;2023-04-30T14:27:15;100968.78;;;18.10;100.00
21100;BME280;10708;50.824;4.408;2023-04-30T14:32:17;100958.06;;;18.26;100.00
21100;BME280;10708;50.824;4.408;2023-04-30T14:37:19;100967.22;;;18.36;100.00
21100;BME280;10708;50.824;4.408;2023-04-30T14:42:24;100961.75;;;18.37;100.00
21100;BME280;10708;50.824;4.408;2023-04-30T14:47:27;100963.31;;;18.70;100.00
21100;BME280;10708;50.824;4.408;2023-04-30T14:52:29;100960.66;;;18.84;100.00
21100;BME280;10708;50.824;4.408;2023-04-30T14:57:35;100955.84;;;18.89;100.00
21100;BME280;10708;50.824;4.408;2023-04-30T15:02:37;100953.09;;;18.91;100.00
21100;BME280;10708;50.824;4.408;2023-04-30T15:07:40;100938.59;;;18.95;100.00
21100;BME280;10708;50.824;4.408;2023-04-30T15:12:44;100935.00;;;18.67;100.00
21100;BME280;10708;50.824;4.408;2023-04-30T15:17:46;100934.06;;;18.68;100.00
21100;BME280;10708;50.824;4.408;2023-04-30T15:22:48;100927.28;;;18.77;100.00
21100;BME280;10708;50.824;4.408;2023-04-30T15:27:53;100921.81;;;18.93;100.00
21100;BME280;10708;50.824;4.408;2023-04-30T15:32:56;100904.88;;;18.94;100.00
21100;BME280;10708;50.824;4.408;2023-04-30T15:37:59;100907.72;;;18.91;100.00
21100;BME280;10708;50.824;4.408;2023-04-30T15:43:03;100911.28;;;18.77;100.00
21100;BME280;10708;50.824;4.408;2023-04-30T15:48:06;100901.78;;;18.73;100.00
21100;BME280;10708;50.824;4.408;2023-04-30T15:53:08;100905.47;;;18.70;100.00
21100;BME280;10708;50.824;4.408;2023-04-30T15:58:13;100904.34;;;18.74;100.00
21100;BME280;10708;50.824;4.408;2023-04-30T16:03:16;100893.44;;;18.77;100.00
21100;BME280;10708;50.824;4.408;2023-04-30T16:08:18;100891.16;;;18.86;100.00
21100;BME280;10708;50.824;4.408;2023-04-30T16:13:23;100878.72;;;18.99;100.00
21100;BME280;10708;50.824;4.408;2023-04-30T16:18:25;100875.25;;;19.11;100.00
21100;BME280;10708;50.824;4.408;2023-04-30T16:23:29;100866.03;;;19.02;100.00
21100;BME280;10708;50.824;4.408;2023-04-30T16:28:34;100863.75;;;18.69;100.00
21100;BME280;10708;50.824;4.408;2023-04-30T16:33:36;100869.38;;;18.51;100.00
21100;BME280;10708;50.824;4.408;2023-04-30T16:38:39;100865.81;;;18.78;100.00
21100;BME280;10708;50.824;4.408;2023-04-30T16:43:43;100860.63;;;18.90;100.00
21100;BME280;10708;50.824;4.408;2023-04-30T16:48:46;100862.16;;;18.94;100.00
21100;BME280;10708;50.824;4.408;2023-04-30T16:53:48;100860.97;;;18.85;100.00
21100;BME280;10708;50.824;4.408;2023-04-30T16:58:52;100864.59;;;18.84;100.00
21100;BME280;10708;50.824;4.408;2023-04-30T17:03:55;100850.06;;;18.88;100.00
21100;BME280;10708;50.824;4.408;2023-04-30T17:08:58;100853.34;;;18.79;100.00
21100;BME280;10708;50.824;4.408;2023-04-30T17:14:01;100842.06;;;18.61;100.00
21100;BME280;10708;50.824;4.408;2023-04-30T17:19:04;100837.97;;;18.41;100.00
21100;BME280;10708;50.824;4.408;2023-04-30T17:24:07;100847.78;;;18.27;100.00
21100;BME280;10708;50.824;4.408;2023-04-30T17:29:11;100844.00;;;18.17;100.00
21100;BME280;10708;50.824;4.408;2023-04-30T17:34:14;100844.69;;;18.06;100.00
21100;BME280;10708;50.824;4.408;2023-04-30T17:39:17;100836.09;;;18.01;100.00
21100;BME280;10708;50.824;4.408;2023-04-30T17:44:21;100842.19;;;17.89;100.00
21100;BME280;10708;50.824;4.408;2023-04-30T17:49:23;100830.66;;;17.88;100.00
21100;BME280;10708;50.824;4.408;2023-04-30T17:54:27;100833.53;;;17.85;100.00
21100;BME280;10708;50.824;4.408;2023-04-30T17:59:31;100835.78;;;17.77;100.00
21100;BME280;10708;50.824;4.408;2023-04-30T18:04:34;100831.91;;;17.68;100.00
21100;BME280;10708;50.824;4.408;2023-04-30T18:09:37;100822.06;;;17.55;100.00
21100;BME280;10708;50.824;4.408;2023-04-30T18:14:41;100821.22;;;17.54;100.00
21100;BME280;10708;50.824;4.408;2023-04-30T18:19:52;100819.97;;;17.46;100.00
21100;BME280;10708;50.824;4.408;2023-04-30T18:24:55;100826.56;;;17.39;100.00
21100;BME280;10708;50.824;4.408;2023-04-30T18:30:00;100823.53;;;17.30;100.00
21100;BME280;10708;50.824;4.408;2023-04-30T18:35:03;100827.03;;;17.17;100.00
21100;BME280;10708;50.824;4.408;2023-04-30T18:40:07;100816.22;;;17.04;100.00
21100;BME280;10708;50.824;4.408;2023-04-30T18:45:14;100820.63;;;16.89;100.00
21100;BME280;10708;50.824;4.408;2023-04-30T18:50:17;100819.72;;;16.75;100.00
21100;BME280;10708;50.824;4.408;2023-04-30T18:55:21;100820.47;;;16.61;100.00
21100;BME280;10708;50.824;4.408;2023-04-30T19:00:25;100823.78;;;16.49;100.00
21100;BME280;10708;50.824;4.408;2023-04-30T19:05:28;100816.63;;;16.35;100.00
21100;BME280;10708;50.824;4.408;2023-04-30T19:10:32;100813.50;;;16.27;100.00
21100;BME280;10708;50.824;4.408;2023-04-30T19:15:37;100825.25;;;16.23;100.00
21100;BME280;10708;50.824;4.408;2023-04-30T19:31:46;100832.88;;;16.13;100.00
21100;BME280;10708;50.824;4.408;2023-04-30T19:36:49;100828.66;;;16.09;100.00
21100;BME280;10708;50.824;4.408;2023-04-30T19:41:51;100825.31;;;16.06;100.00
21100;BME280;10708;50.824;4.408;2023-04-30T19:46:55;100829.06;;;16.02;100.00
21100;BME280;10708;50.824;4.408;2023-04-30T19:51:58;100831.97;;;15.97;100.00
21100;BME280;10708;50.824;4.408;2023-04-30T19:57:06;100833.16;;;15.92;100.00
21100;BME280;10708;50.824;4.408;2023-04-30T20:02:14;100827.25;;;15.86;100.00
21100;BME280;10708;50.824;4.408;2023-04-30T20:07:17;100821.25;;;15.83;100.00
21100;BME280;10708;50.824;4.408;2023-04-30T20:12:20;100823.38;;;15.76;100.00
21100;BME280;10708;50.824;4.408;2023-04-30T20:17:25;100821.03;;;15.70;100.00
21100;BME280;10708;50.824;4.408;2023-04-30T20:22:34;100822.22;;;15.65;100.00
21100;BME280;10708;50.824;4.408;2023-04-30T20:27:37;100820.91;;;15.56;100.00
21100;BME280;10708;50.824;4.408;2023-04-30T20:32:41;100822.97;;;15.49;100.00
21100;BME280;10708;50.824;4.408;2023-04-30T20:37:44;100809.31;;;15.40;100.00
21100;BME280;10708;50.824;4.408;2023-04-30T20:42:49;100822.13;;;15.32;100.00
21100;BME280;10708;50.824;4.408;2023-04-30T20:47:54;100812.78;;;15.25;100.00
21100;BME280;10708;50.824;4.408;2023-04-30T20:53:05;100813.06;;;15.19;100.00
21100;BME280;10708;50.824;4.408;2023-04-30T20:58:08;100823.16;;;15.12;100.00
21100;BME280;10708;50.824;4.408;2023-04-30T21:03:12;100808.41;;;15.06;100.00
21100;BME280;10708;50.824;4.408;2023-04-30T21:08:14;100805.13;;;15.01;100.00
21100;BME280;10708;50.824;4.408;2023-04-30T21:13:17;100804.56;;;14.95;100.00
21100;BME280;10708;50.824;4.408;2023-04-30T21:18:42;100798.81;;;14.87;100.00
21100;BME280;10708;50.824;4.408;2023-04-30T21:23:47;100793.84;;;14.79;100.00
21100;BME280;10708;50.824;4.408;2023-04-30T21:28:50;100804.84;;;14.71;100.00
21100;BME280;10708;50.824;4.408;2023-04-30T21:33:55;100806.00;;;14.66;100.00
21100;BME280;10708;50.824;4.408;2023-04-30T21:38:59;100788.47;;;14.63;100.00
21100;BME280;10708;50.824;4.408;2023-04-30T21:44:01;100794.69;;;14.62;100.00
21100;BME280;10708;50.824;4.408;2023-04-30T21:49:06;100788.59;;;14.60;100.00
21100;BME280;10708;50.824;4.408;2023-04-30T21:54:26;100790.38;;;14.60;100.00
21100;BME280;10708;50.824;4.408;2023-04-30T21:59:33;100780.81;;;14.57;100.00
21100;BME280;10708;50.824;4.408;2023-04-30T22:04:42;100793.28;;;14.55;100.00
21100;BME280;10708;50.824;4.408;2023-04-30T22:10:37;100780.16;;;14.52;100.00
21100;BME280;10708;50.824;4.408;2023-04-30T22:15:41;100779.38;;;14.50;100.00
21100;BME280;10708;50.824;4.408;2023-04-30T22:21:04;100775.19;;;14.46;100.00
21100;BME280;10708;50.824;4.408;2023-04-30T22:26:11;100766.50;;;14.43;100.00
21100;BME280;10708;50.824;4.408;2023-04-30T22:31:28;100773.66;;;14.40;100.00
21100;BME280;10708;50.824;4.408;2023-04-30T22:36:43;100770.34;;;14.35;100.00
21100;BME280;10708;50.824;4.408;2023-04-30T22:41:47;100762.69;;;14.29;100.00
21100;BME280;10708;50.824;4.408;2023-04-30T22:46:55;100764.78;;;14.23;100.00
21100;BME280;10708;50.824;4.408;2023-04-30T22:52:14;100765.22;;;14.14;100.00
21100;BME280;10708;50.824;4.408;2023-04-30T22:57:46;100756.78;;;14.06;100.00
21100;BME280;10708;50.824;4.408;2023-04-30T23:02:53;100750.13;;;13.97;100.00
21100;BME280;10708;50.824;4.408;2023-04-30T23:08:03;100741.59;;;13.90;100.00
21100;BME280;10708;50.824;4.408;2023-04-30T23:13:18;100741.09;;;13.82;100.00
21100;BME280;10708;50.824;4.408;2023-04-30T23:18:23;100742.31;;;13.75;100.00
21100;BME280;10708;50.824;4.408;2023-04-30T23:23:52;100736.53;;;13.67;100.00
21100;BME280;10708;50.824;4.408;2023-04-30T23:29:17;100735.13;;;13.58;100.00
21100;BME280;10708;50.824;4.408;2023-04-30T23:34:40;100732.78;;;13.52;100.00
21100;BME280;10708;50.824;4.408;2023-04-30T23:40:03;100730.53;;;13.43;100.00
21100;BME280;10708;50.824;4.408;2023-04-30T23:45:20;100724.59;;;13.38;100.00
21100;BME280;10708;50.824;4.408;2023-04-30T23:50:50;100722.03;;;13.37;100.00
21100;BME280;10708;50.824;4.408;2023-04-30T23:56:07;100711.34;;;13.38;100.00
